sensor_id;sensor_type;location;lat;lon;timestamp;temperature;humidity
67005;HTU21D;53920;51.094;5.902;2023-08-08T00:01:33;14.84;70.30
67005;HTU21D;53920;51.094;5.902;2023-08-08T00:04:00;14.84;70.34
67005;HTU21D;53920;51.094;5.902;2023-08-08T00:06:26;14.82;70.41
67005;HTU21D;53920;51.094;5.902;2023-08-08T00:08:52;14.82;70.45
67005;HTU21D;53920;51.094;5.902;2023-08-08T00:11:18;14.77;70.62
67005;HTU21D;53920;51.094;5.902;2023-08-08T00:13:45;14.73;70.83
67005;HTU21D;53920;51.094;5.902;2023-08-08T00:16:11;14.72;70.84
67005;HTU21D;53920;51.094;5.902;2023-08-08T00:18:37;14.67;71.03
67005;HTU21D;53920;51.094;5.902;2023-08-08T00:21:03;14.65;71.13
67005;HTU21D;53920;51.094;5.902;2023-08-08T00:23:29;14.63;71.23
67005;HTU21D;53920;51.094;5.902;2023-08-08T00:25:55;14.59;71.42
67005;HTU21D;53920;51.094;5.902;2023-08-08T00:28:20;14.60;71.45
67005;HTU21D;53920;51.094;5.902;2023-08-08T00:30:46;14.56;71.58
67005;HTU21D;53920;51.094;5.902;2023-08-08T00:33:12;14.59;71.48
67005;HTU21D;53920;51.094;5.902;2023-08-08T00:35:38;14.54;71.70
67005;HTU21D;53920;51.094;5.902;2023-08-08T00:38:04;14.60;71.55
67005;HTU21D;53920;51.094;5.902;2023-08-08T00:40:30;14.56;71.70
67005;HTU21D;53920;51.094;5.902;2023-08-08T00:42:56;14.54;71.77
67005;HTU21D;53920;51.094;5.902;2023-08-08T00:45:22;14.59;71.62
67005;HTU21D;53920;51.094;5.902;2023-08-08T00:47:48;14.55;71.71
67005;HTU21D;53920;51.094;5.902;2023-08-08T00:50:14;14.57;71.71
67005;HTU21D;53920;51.094;5.902;2023-08-08T00:52:41;14.51;71.89
67005;HTU21D;53920;51.094;5.902;2023-08-08T00:55:09;14.51;71.88
67005;HTU21D;53920;51.094;5.902;2023-08-08T00:57:35;14.39;72.24
67005;HTU21D;53920;51.094;5.902;2023-08-08T01:00:08;14.43;72.16
67005;HTU21D;53920;51.094;5.902;2023-08-08T01:02:37;14.49;72.06
67005;HTU21D;53920;51.094;5.902;2023-08-08T01:05:05;14.47;72.19
67005;HTU21D;53920;51.094;5.902;2023-08-08T01:10:25;14.43;72.37
67005;HTU21D;53920;51.094;5.902;2023-08-08T01:12:57;14.44;72.32
67005;HTU21D;53920;51.094;5.902;2023-08-08T01:15:25;14.44;72.29
67005;HTU21D;53920;51.094;5.902;2023-08-08T01:17:54;14.43;72.35
67005;HTU21D;53920;51.094;5.902;2023-08-08T01:20:21;14.45;72.34
67005;HTU21D;53920;51.094;5.902;2023-08-08T01:23:19;14.40;72.49
67005;HTU21D;53920;51.094;5.902;2023-08-08T01:26:15;14.47;72.35
67005;HTU21D;53920;51.094;5.902;2023-08-08T01:28:42;14.51;72.37
67005;HTU21D;53920;51.094;5.902;2023-08-08T01:31:08;14.54;72.33
67005;HTU21D;53920;51.094;5.902;2023-08-08T01:33:35;14.56;72.30
67005;HTU21D;53920;51.094;5.902;2023-08-08T01:36:07;14.56;72.30
67005;HTU21D;53920;51.094;5.902;2023-08-08T01:38:43;14.60;72.26
67005;HTU21D;53920;51.094;5.902;2023-08-08T01:41:10;14.66;72.18
67005;HTU21D;53920;51.094;5.902;2023-08-08T01:43:39;14.70;72.01
67005;HTU21D;53920;51.094;5.902;2023-08-08T01:46:07;14.65;72.19
67005;HTU21D;53920;51.094;5.902;2023-08-08T01:48:33;14.58;72.44
67005;HTU21D;53920;51.094;5.902;2023-08-08T01:50:59;14.59;72.39
67005;HTU21D;53920;51.094;5.902;2023-08-08T01:53:26;14.54;72.54
67005;HTU21D;53920;51.094;5.902;2023-08-08T01:55:52;14.48;72.80
67005;HTU21D;53920;51.094;5.902;2023-08-08T01:58:18;14.44;72.90
67005;HTU21D;53920;51.094;5.902;2023-08-08T02:00:44;14.41;73.08
67005;HTU21D;53920;51.094;5.902;2023-08-08T02:03:12;14.39;73.20
67005;HTU21D;53920;51.094;5.902;2023-08-08T02:05:38;14.41;73.15
67005;HTU21D;53920;51.094;5.902;2023-08-08T02:08:04;14.37;73.32
67005;HTU21D;53920;51.094;5.902;2023-08-08T02:10:30;14.34;73.44
67005;HTU21D;53920;51.094;5.902;2023-08-08T02:12:56;14.26;73.71
67005;HTU21D;53920;51.094;5.902;2023-08-08T02:15:22;14.25;73.77
67005;HTU21D;53920;51.094;5.902;2023-08-08T02:17:50;14.24;73.85
67005;HTU21D;53920;51.094;5.902;2023-08-08T02:20:16;14.17;74.19
67005;HTU21D;53920;51.094;5.902;2023-08-08T02:22:44;14.21;74.03
67005;HTU21D;53920;51.094;5.902;2023-08-08T02:25:10;14.11;74.42
67005;HTU21D;53920;51.094;5.902;2023-08-08T02:27:36;14.13;74.43
67005;HTU21D;53920;51.094;5.902;2023-08-08T02:30:02;14.17;74.38
67005;HTU21D;53920;51.094;5.902;2023-08-08T02:32:28;14.12;74.60
67005;HTU21D;53920;51.094;5.902;2023-08-08T02:34:54;14.11;74.70
67005;HTU21D;53920;51.094;5.902;2023-08-08T02:37:20;14.08;74.85
67005;HTU21D;53920;51.094;5.902;2023-08-08T02:39:46;14.06;74.99
67005;HTU21D;53920;51.094;5.902;2023-08-08T02:42:14;14.12;74.96
67005;HTU21D;53920;51.094;5.902;2023-08-08T02:44:41;14.07;75.34
67005;HTU21D;53920;51.094;5.902;2023-08-08T02:47:07;14.15;75.06
67005;HTU21D;53920;51.094;5.902;2023-08-08T02:49:34;14.10;75.31
67005;HTU21D;53920;51.094;5.902;2023-08-08T02:52:00;14.04;75.56
67005;HTU21D;53920;51.094;5.902;2023-08-08T02:54:30;14.00;75.79
67005;HTU21D;53920;51.094;5.902;2023-08-08T02:56:56;13.96;75.99
67005;HTU21D;53920;51.094;5.902;2023-08-08T02:59:23;13.96;76.22
67005;HTU21D;53920;51.094;5.902;2023-08-08T03:01:51;14.01;76.04
67005;HTU21D;53920;51.094;5.902;2023-08-08T03:04:17;13.98;76.20
67005;HTU21D;53920;51.094;5.902;2023-08-08T03:06:44;13.94;76.47
67005;HTU21D;53920;51.094;5.902;2023-08-08T03:09:10;13.97;76.40
67005;HTU21D;53920;51.094;5.902;2023-08-08T03:11:37;13.85;76.94
67005;HTU21D;53920;51.094;5.902;2023-08-08T03:14:08;13.84;76.99
67005;HTU21D;53920;51.094;5.902;2023-08-08T03:16:35;13.91;76.96
67005;HTU21D;53920;51.094;5.902;2023-08-08T03:19:01;13.83;77.27
67005;HTU21D;53920;51.094;5.902;2023-08-08T03:21:27;13.84;77.40
67005;HTU21D;53920;51.094;5.902;2023-08-08T03:23:53;13.88;77.44
67005;HTU21D;53920;51.094;5.902;2023-08-08T03:26:19;13.82;77.79
67005;HTU21D;53920;51.094;5.902;2023-08-08T03:28:45;13.95;77.37
67005;HTU21D;53920;51.094;5.902;2023-08-08T03:31:17;13.94;77.49
67005;HTU21D;53920;51.094;5.902;2023-08-08T03:33:43;13.95;77.55
67005;HTU21D;53920;51.094;5.902;2023-08-08T03:36:10;13.93;77.61
67005;HTU21D;53920;51.094;5.902;2023-08-08T03:38:36;13.92;77.65
67005;HTU21D;53920;51.094;5.902;2023-08-08T03:41:04;13.90;77.84
67005;HTU21D;53920;51.094;5.902;2023-08-08T03:43:29;14.00;77.65
67005;HTU21D;53920;51.094;5.902;2023-08-08T03:45:56;14.04;77.72
67005;HTU21D;53920;51.094;5.902;2023-08-08T03:48:21;14.06;77.60
67005;HTU21D;53920;51.094;5.902;2023-08-08T03:50:47;13.93;77.95
67005;HTU21D;53920;51.094;5.902;2023-08-08T03:53:13;13.95;77.94
67005;HTU21D;53920;51.094;5.902;2023-08-08T03:55:39;13.95;77.97
67005;HTU21D;53920;51.094;5.902;2023-08-08T03:58:05;14.06;77.83
67005;HTU21D;53920;51.094;5.902;2023-08-08T04:00:33;14.08;77.83
67005;HTU21D;53920;51.094;5.902;2023-08-08T04:02:59;14.05;77.82
67005;HTU21D;53920;51.094;5.902;2023-08-08T04:05:25;13.97;78.02
67005;HTU21D;53920;51.094;5.902;2023-08-08T04:07:51;13.96;78.07
67005;HTU21D;53920;51.094;5.902;2023-08-08T04:10:17;13.93;78.27
67005;HTU21D;53920;51.094;5.902;2023-08-08T04:12:43;13.96;78.14
67005;HTU21D;53920;51.094;5.902;2023-08-08T04:15:09;13.86;78.38
67005;HTU21D;53920;51.094;5.902;2023-08-08T04:17:35;13.91;78.38
67005;HTU21D;53920;51.094;5.902;2023-08-08T04:20:02;13.85;78.50
67005;HTU21D;53920;51.094;5.902;2023-08-08T04:22:31;13.79;79.00
67005;HTU21D;53920;51.094;5.902;2023-08-08T04:24:56;13.88;78.67
67005;HTU21D;53920;51.094;5.902;2023-08-08T04:27:23;13.89;78.67
67005;HTU21D;53920;51.094;5.902;2023-08-08T04:29:48;13.93;78.71
67005;HTU21D;53920;51.094;5.902;2023-08-08T04:32:15;13.98;78.59
67005;HTU21D;53920;51.094;5.902;2023-08-08T04:34:41;13.94;78.76
67005;HTU21D;53920;51.094;5.902;2023-08-08T04:37:07;13.93;78.82
67005;HTU21D;53920;51.094;5.902;2023-08-08T04:39:33;13.98;78.62
67005;HTU21D;53920;51.094;5.902;2023-08-08T04:41:58;13.96;78.73
67005;HTU21D;53920;51.094;5.902;2023-08-08T04:44:24;13.98;78.68
67005;HTU21D;53920;51.094;5.902;2023-08-08T04:46:50;14.01;78.70
67005;HTU21D;53920;51.094;5.902;2023-08-08T04:49:16;14.04;78.61
67005;HTU21D;53920;51.094;5.902;2023-08-08T04:51:42;14.05;78.63
67005;HTU21D;53920;51.094;5.902;2023-08-08T04:54:07;14.09;78.55
67005;HTU21D;53920;51.094;5.902;2023-08-08T04:56:33;14.12;78.40
67005;HTU21D;53920;51.094;5.902;2023-08-08T04:58:59;14.21;78.29
67005;HTU21D;53920;51.094;5.902;2023-08-08T05:01:25;14.33;78.03
67005;HTU21D;53920;51.094;5.902;2023-08-08T05:03:51;14.44;77.68
67005;HTU21D;53920;51.094;5.902;2023-08-08T05:06:17;14.43;77.87
67005;HTU21D;53920;51.094;5.902;2023-08-08T05:08:43;14.45;77.56
67005;HTU21D;53920;51.094;5.902;2023-08-08T05:11:08;14.40;77.70
67005;HTU21D;53920;51.094;5.902;2023-08-08T05:13:34;14.34;77.94
67005;HTU21D;53920;51.094;5.902;2023-08-08T05:16:00;14.44;77.53
67005;HTU21D;53920;51.094;5.902;2023-08-08T05:18:26;14.37;77.96
67005;HTU21D;53920;51.094;5.902;2023-08-08T05:20:52;14.52;77.42
67005;HTU21D;53920;51.094;5.902;2023-08-08T05:23:17;14.62;77.20
67005;HTU21D;53920;51.094;5.902;2023-08-08T05:25:43;14.59;77.23
67005;HTU21D;53920;51.094;5.902;2023-08-08T05:28:10;14.63;77.16
67005;HTU21D;53920;51.094;5.902;2023-08-08T05:30:35;14.70;76.97
67005;HTU21D;53920;51.094;5.902;2023-08-08T05:33:01;14.79;76.80
67005;HTU21D;53920;51.094;5.902;2023-08-08T05:35:27;14.87;76.41
67005;HTU21D;53920;51.094;5.902;2023-08-08T05:37:53;14.91;76.33
67005;HTU21D;53920;51.094;5.902;2023-08-08T05:40:19;14.97;76.03
67005;HTU21D;53920;51.094;5.902;2023-08-08T05:42:45;14.99;76.07
67005;HTU21D;53920;51.094;5.902;2023-08-08T05:45:11;15.14;75.67
67005;HTU21D;53920;51.094;5.902;2023-08-08T05:47:37;15.19;75.63
67005;HTU21D;53920;51.094;5.902;2023-08-08T05:50:03;15.45;74.80
67005;HTU21D;53920;51.094;5.902;2023-08-08T05:52:29;15.51;74.64
67005;HTU21D;53920;51.094;5.902;2023-08-08T05:54:54;15.56;74.47
67005;HTU21D;53920;51.094;5.902;2023-08-08T05:57:20;15.60;74.18
67005;HTU21D;53920;51.094;5.902;2023-08-08T05:59:48;15.63;74.06
67005;HTU21D;53920;51.094;5.902;2023-08-08T06:02:13;15.68;73.89
67005;HTU21D;53920;51.094;5.902;2023-08-08T06:04:39;15.82;73.65
67005;HTU21D;53920;51.094;5.902;2023-08-08T06:07:05;15.96;73.25
67005;HTU21D;53920;51.094;5.902;2023-08-08T06:09:31;16.03;73.13
67005;HTU21D;53920;51.094;5.902;2023-08-08T06:11:58;16.11;72.72
67005;HTU21D;53920;51.094;5.902;2023-08-08T06:14:24;16.17;72.50
67005;HTU21D;53920;51.094;5.902;2023-08-08T06:16:49;16.24;72.38
67005;HTU21D;53920;51.094;5.902;2023-08-08T06:19:15;16.36;72.21
67005;HTU21D;53920;51.094;5.902;2023-08-08T06:21:42;16.52;71.83
67005;HTU21D;53920;51.094;5.902;2023-08-08T06:24:08;16.76;71.04
67005;HTU21D;53920;51.094;5.902;2023-08-08T06:26:34;16.87;70.72
67005;HTU21D;53920;51.094;5.902;2023-08-08T06:28:59;16.87;70.56
67005;HTU21D;53920;51.094;5.902;2023-08-08T06:31:25;16.90;70.39
67005;HTU21D;53920;51.094;5.902;2023-08-08T06:33:51;16.91;70.36
67005;HTU21D;53920;51.094;5.902;2023-08-08T06:36:17;16.98;70.35
67005;HTU21D;53920;51.094;5.902;2023-08-08T06:38:46;17.10;69.93
67005;HTU21D;53920;51.094;5.902;2023-08-08T06:41:12;17.22;69.50
67005;HTU21D;53920;51.094;5.902;2023-08-08T06:43:39;17.31;69.05
67005;HTU21D;53920;51.094;5.902;2023-08-08T06:46:05;17.49;68.41
67005;HTU21D;53920;51.094;5.902;2023-08-08T06:48:30;17.39;68.61
67005;HTU21D;53920;51.094;5.902;2023-08-08T06:50:56;17.48;68.27
67005;HTU21D;53920;51.094;5.902;2023-08-08T06:53:23;17.59;67.86
67005;HTU21D;53920;51.094;5.902;2023-08-08T06:55:49;17.87;67.19
67005;HTU21D;53920;51.094;5.902;2023-08-08T06:58:14;18.03;66.69
67005;HTU21D;53920;51.094;5.902;2023-08-08T07:00:40;18.14;66.28
67005;HTU21D;53920;51.094;5.902;2023-08-08T07:03:06;18.14;66.11
67005;HTU21D;53920;51.094;5.902;2023-08-08T07:05:32;18.00;66.23
67005;HTU21D;53920;51.094;5.902;2023-08-08T07:07:58;17.95;66.45
67005;HTU21D;53920;51.094;5.902;2023-08-08T07:10:24;17.84;66.71
67005;HTU21D;53920;51.094;5.902;2023-08-08T07:12:49;17.89;66.71
67005;HTU21D;53920;51.094;5.902;2023-08-08T07:15:15;17.87;66.90
67005;HTU21D;53920;51.094;5.902;2023-08-08T07:17:41;17.80;66.91
67005;HTU21D;53920;51.094;5.902;2023-08-08T07:20:07;17.85;66.95
67005;HTU21D;53920;51.094;5.902;2023-08-08T07:22:34;18.03;66.43
67005;HTU21D;53920;51.094;5.902;2023-08-08T07:25:00;18.18;66.08
67005;HTU21D;53920;51.094;5.902;2023-08-08T07:27:26;18.10;66.08
67005;HTU21D;53920;51.094;5.902;2023-08-08T07:29:53;17.92;66.63
67005;HTU21D;53920;51.094;5.902;2023-08-08T07:32:19;17.77;66.85
67005;HTU21D;53920;51.094;5.902;2023-08-08T07:34:45;17.75;66.83
67005;HTU21D;53920;51.094;5.902;2023-08-08T07:37:10;17.60;67.37
67005;HTU21D;53920;51.094;5.902;2023-08-08T07:39:37;17.64;67.39
67005;HTU21D;53920;51.094;5.902;2023-08-08T07:42:03;17.80;66.95
67005;HTU21D;53920;51.094;5.902;2023-08-08T07:44:29;17.93;66.69
67005;HTU21D;53920;51.094;5.902;2023-08-08T07:46:54;18.00;66.35
67005;HTU21D;53920;51.094;5.902;2023-08-08T07:49:20;17.88;66.83
67005;HTU21D;53920;51.094;5.902;2023-08-08T07:51:46;18.00;66.57
67005;HTU21D;53920;51.094;5.902;2023-08-08T07:54:12;18.00;66.69
67005;HTU21D;53920;51.094;5.902;2023-08-08T07:56:41;17.96;66.64
67005;HTU21D;53920;51.094;5.902;2023-08-08T07:59:08;17.99;66.73
67005;HTU21D;53920;51.094;5.902;2023-08-08T08:01:35;18.06;66.75
67005;HTU21D;53920;51.094;5.902;2023-08-08T08:04:02;18.06;66.78
67005;HTU21D;53920;51.094;5.902;2023-08-08T08:06:28;18.00;66.89
67005;HTU21D;53920;51.094;5.902;2023-08-08T08:08:54;17.96;67.04
67005;HTU21D;53920;51.094;5.902;2023-08-08T08:11:20;17.99;67.15
67005;HTU21D;53920;51.094;5.902;2023-08-08T08:13:46;18.00;67.05
67005;HTU21D;53920;51.094;5.902;2023-08-08T08:16:12;18.09;66.87
67005;HTU21D;53920;51.094;5.902;2023-08-08T08:18:37;18.21;66.26
67005;HTU21D;53920;51.094;5.902;2023-08-08T08:21:04;18.40;65.94
67005;HTU21D;53920;51.094;5.902;2023-08-08T08:23:30;18.69;65.40
67005;HTU21D;53920;51.094;5.902;2023-08-08T08:25:58;18.99;64.68
67005;HTU21D;53920;51.094;5.902;2023-08-08T08:28:25;19.28;63.89
67005;HTU21D;53920;51.094;5.902;2023-08-08T08:30:51;19.55;63.18
67005;HTU21D;53920;51.094;5.902;2023-08-08T08:33:19;19.54;63.11
67005;HTU21D;53920;51.094;5.902;2023-08-08T08:35:45;20.26;61.09
67005;HTU21D;53920;51.094;5.902;2023-08-08T08:38:11;21.38;58.06
67005;HTU21D;53920;51.094;5.902;2023-08-08T08:40:40;22.48;54.85
67005;HTU21D;53920;51.094;5.902;2023-08-08T08:43:07;22.63;54.11
67005;HTU21D;53920;51.094;5.902;2023-08-08T08:45:38;22.32;54.49
67005;HTU21D;53920;51.094;5.902;2023-08-08T08:48:10;21.97;55.11
67005;HTU21D;53920;51.094;5.902;2023-08-08T08:50:38;21.68;55.61
67005;HTU21D;53920;51.094;5.902;2023-08-08T08:53:06;21.35;56.58
67005;HTU21D;53920;51.094;5.902;2023-08-08T08:55:32;20.94;57.33
67005;HTU21D;53920;51.094;5.902;2023-08-08T08:57:58;20.75;57.70
67005;HTU21D;53920;51.094;5.902;2023-08-08T09:00:24;20.35;58.69
67005;HTU21D;53920;51.094;5.902;2023-08-08T09:02:52;20.25;59.06
67005;HTU21D;53920;51.094;5.902;2023-08-08T09:05:18;20.14;59.35
67005;HTU21D;53920;51.094;5.902;2023-08-08T09:07:47;20.11;59.65
67005;HTU21D;53920;51.094;5.902;2023-08-08T09:10:15;20.15;59.69
67005;HTU21D;53920;51.094;5.902;2023-08-08T09:12:41;20.19;59.35
67005;HTU21D;53920;51.094;5.902;2023-08-08T09:15:07;20.17;59.48
67005;HTU21D;53920;51.094;5.902;2023-08-08T09:17:34;20.20;59.57
67005;HTU21D;53920;51.094;5.902;2023-08-08T09:20:00;20.14;59.68
67005;HTU21D;53920;51.094;5.902;2023-08-08T09:22:26;20.10;59.97
67005;HTU21D;53920;51.094;5.902;2023-08-08T09:24:55;20.00;60.12
67005;HTU21D;53920;51.094;5.902;2023-08-08T09:27:21;19.83;60.48
67005;HTU21D;53920;51.094;5.902;2023-08-08T09:29:47;19.60;60.67
67005;HTU21D;53920;51.094;5.902;2023-08-08T09:32:12;19.48;60.98
67005;HTU21D;53920;51.094;5.902;2023-08-08T09:34:42;19.41;61.05
67005;HTU21D;53920;51.094;5.902;2023-08-08T09:37:08;19.37;60.95
67005;HTU21D;53920;51.094;5.902;2023-08-08T09:39:37;19.29;61.07
67005;HTU21D;53920;51.094;5.902;2023-08-08T09:42:07;19.31;61.15
67005;HTU21D;53920;51.094;5.902;2023-08-08T09:44:33;19.55;61.12
67005;HTU21D;53920;51.094;5.902;2023-08-08T09:47:01;19.73;60.58
67005;HTU21D;53920;51.094;5.902;2023-08-08T09:49:28;19.81;60.67
67005;HTU21D;53920;51.094;5.902;2023-08-08T09:51:55;19.81;60.35
67005;HTU21D;53920;51.094;5.902;2023-08-08T09:54:22;19.74;60.22
67005;HTU21D;53920;51.094;5.902;2023-08-08T09:56:49;19.61;60.23
67005;HTU21D;53920;51.094;5.902;2023-08-08T09:59:16;19.58;60.25
67005;HTU21D;53920;51.094;5.902;2023-08-08T10:01:44;19.50;60.70
67005;HTU21D;53920;51.094;5.902;2023-08-08T10:04:12;19.45;60.73
67005;HTU21D;53920;51.094;5.902;2023-08-08T10:06:38;19.44;60.92
67005;HTU21D;53920;51.094;5.902;2023-08-08T10:09:05;19.47;60.72
67005;HTU21D;53920;51.094;5.902;2023-08-08T10:11:33;19.47;60.84
67005;HTU21D;53920;51.094;5.902;2023-08-08T10:14:02;19.51;60.86
67005;HTU21D;53920;51.094;5.902;2023-08-08T10:16:32;19.46;60.92
67005;HTU21D;53920;51.094;5.902;2023-08-08T10:19:01;19.32;61.33
67005;HTU21D;53920;51.094;5.902;2023-08-08T10:21:27;19.17;61.89
67005;HTU21D;53920;51.094;5.902;2023-08-08T10:24:05;19.09;62.89
67005;HTU21D;53920;51.094;5.902;2023-08-08T10:26:33;18.93;64.08
67005;HTU21D;53920;51.094;5.902;2023-08-08T10:29:00;18.69;64.74
67005;HTU21D;53920;51.094;5.902;2023-08-08T10:31:33;18.55;65.50
67005;HTU21D;53920;51.094;5.902;2023-08-08T10:34:05;18.55;65.81
67005;HTU21D;53920;51.094;5.902;2023-08-08T10:36:48;18.59;65.75
67005;HTU21D;53920;51.094;5.902;2023-08-08T10:39:15;18.62;65.14
67005;HTU21D;53920;51.094;5.902;2023-08-08T10:41:46;18.64;64.31
67005;HTU21D;53920;51.094;5.902;2023-08-08T10:44:13;18.61;64.66
67005;HTU21D;53920;51.094;5.902;2023-08-08T10:46:41;18.67;64.50
67005;HTU21D;53920;51.094;5.902;2023-08-08T10:49:08;18.61;64.72
67005;HTU21D;53920;51.094;5.902;2023-08-08T10:51:39;18.77;63.85
67005;HTU21D;53920;51.094;5.902;2023-08-08T10:54:19;18.85;64.18
67005;HTU21D;53920;51.094;5.902;2023-08-08T10:56:51;18.94;64.76
67005;HTU21D;53920;51.094;5.902;2023-08-08T10:59:23;18.93;64.30
67005;HTU21D;53920;51.094;5.902;2023-08-08T11:01:52;18.76;63.23
67005;HTU21D;53920;51.094;5.902;2023-08-08T11:04:21;18.76;63.17
67005;HTU21D;53920;51.094;5.902;2023-08-08T11:06:47;18.79;63.59
67005;HTU21D;53920;51.094;5.902;2023-08-08T11:09:16;18.47;65.62
67005;HTU21D;53920;51.094;5.902;2023-08-08T11:11:44;17.82;68.46
67005;HTU21D;53920;51.094;5.902;2023-08-08T11:14:17;17.38;71.14
67005;HTU21D;53920;51.094;5.902;2023-08-08T11:16:45;17.09;72.84
67005;HTU21D;53920;51.094;5.902;2023-08-08T11:19:12;16.99;74.02
67005;HTU21D;53920;51.094;5.902;2023-08-08T11:21:41;16.91;74.69
67005;HTU21D;53920;51.094;5.902;2023-08-08T11:24:08;17.04;74.88
67005;HTU21D;53920;51.094;5.902;2023-08-08T11:26:35;17.58;74.32
67005;HTU21D;53920;51.094;5.902;2023-08-08T11:29:03;18.07;72.76
67005;HTU21D;53920;51.094;5.902;2023-08-08T11:31:29;18.06;72.74
67005;HTU21D;53920;51.094;5.902;2023-08-08T11:33:57;17.89;72.73
67005;HTU21D;53920;51.094;5.902;2023-08-08T11:36:23;17.78;73.10
67005;HTU21D;53920;51.094;5.902;2023-08-08T11:38:50;17.85;72.88
67005;HTU21D;53920;51.094;5.902;2023-08-08T11:41:21;18.57;71.46
67005;HTU21D;53920;51.094;5.902;2023-08-08T11:43:49;19.75;68.33
67005;HTU21D;53920;51.094;5.902;2023-08-08T11:46:16;19.90;67.10
67005;HTU21D;53920;51.094;5.902;2023-08-08T11:48:46;19.72;66.77
67005;HTU21D;53920;51.094;5.902;2023-08-08T11:51:15;19.42;67.06
67005;HTU21D;53920;51.094;5.902;2023-08-08T11:53:53;19.48;66.90
67005;HTU21D;53920;51.094;5.902;2023-08-08T11:56:20;20.14;65.79
67005;HTU21D;53920;51.094;5.902;2023-08-08T11:58:49;21.40;62.54
67005;HTU21D;53920;51.094;5.902;2023-08-08T12:01:15;21.94;59.97
67005;HTU21D;53920;51.094;5.902;2023-08-08T12:03:41;22.92;57.00
67005;HTU21D;53920;51.094;5.902;2023-08-08T12:06:17;24.05;52.90
67005;HTU21D;53920;51.094;5.902;2023-08-08T12:08:44;24.63;50.09
67005;HTU21D;53920;51.094;5.902;2023-08-08T12:11:11;24.55;49.31
67005;HTU21D;53920;51.094;5.902;2023-08-08T12:13:43;23.97;49.79
67005;HTU21D;53920;51.094;5.902;2023-08-08T12:16:12;23.52;50.63
67005;HTU21D;53920;51.094;5.902;2023-08-08T12:18:39;23.08;50.74
67005;HTU21D;53920;51.094;5.902;2023-08-08T12:21:07;22.90;50.79
67005;HTU21D;53920;51.094;5.902;2023-08-08T12:23:34;22.81;50.68
67005;HTU21D;53920;51.094;5.902;2023-08-08T12:26:03;22.66;51.05
67005;HTU21D;53920;51.094;5.902;2023-08-08T12:28:31;23.23;50.34
67005;HTU21D;53920;51.094;5.902;2023-08-08T12:30:57;24.21;47.94
67005;HTU21D;53920;51.094;5.902;2023-08-08T12:33:23;25.63;44.77
67005;HTU21D;53920;51.094;5.902;2023-08-08T12:35:49;26.21;43.19
67005;HTU21D;53920;51.094;5.902;2023-08-08T12:38:15;25.38;41.81
67005;HTU21D;53920;51.094;5.902;2023-08-08T12:40:41;24.87;44.07
67005;HTU21D;53920;51.094;5.902;2023-08-08T12:43:09;24.48;44.48
67005;HTU21D;53920;51.094;5.902;2023-08-08T12:45:36;24.39;44.39
67005;HTU21D;53920;51.094;5.902;2023-08-08T12:48:02;23.66;45.64
67005;HTU21D;53920;51.094;5.902;2023-08-08T12:50:28;22.98;47.07
67005;HTU21D;53920;51.094;5.902;2023-08-08T12:52:54;22.09;48.92
67005;HTU21D;53920;51.094;5.902;2023-08-08T12:55:20;21.63;49.42
67005;HTU21D;53920;51.094;5.902;2023-08-08T12:57:46;21.51;49.59
67005;HTU21D;53920;51.094;5.902;2023-08-08T13:00:13;23.06;47.45
67005;HTU21D;53920;51.094;5.902;2023-08-08T13:02:39;24.19;44.88
67005;HTU21D;53920;51.094;5.902;2023-08-08T13:05:05;23.85;45.41
67005;HTU21D;53920;51.094;5.902;2023-08-08T13:07:32;23.26;46.85
67005;HTU21D;53920;51.094;5.902;2023-08-08T13:09:59;22.84;47.82
67005;HTU21D;53920;51.094;5.902;2023-08-08T13:12:25;22.34;48.61
67005;HTU21D;53920;51.094;5.902;2023-08-08T13:14:51;21.99;49.61
67005;HTU21D;53920;51.094;5.902;2023-08-08T13:17:17;21.65;50.32
67005;HTU21D;53920;51.094;5.902;2023-08-08T13:19:42;21.59;50.08
67005;HTU21D;53920;51.094;5.902;2023-08-08T13:22:08;21.88;48.25
67005;HTU21D;53920;51.094;5.902;2023-08-08T13:24:34;21.88;47.99
67005;HTU21D;53920;51.094;5.902;2023-08-08T13:27:00;21.76;47.51
67005;HTU21D;53920;51.094;5.902;2023-08-08T13:29:26;22.64;46.54
67005;HTU21D;53920;51.094;5.902;2023-08-08T13:31:52;24.08;43.90
67005;HTU21D;53920;51.094;5.902;2023-08-08T13:34:18;24.65;42.72
67005;HTU21D;53920;51.094;5.902;2023-08-08T13:36:43;24.91;42.10
67005;HTU21D;53920;51.094;5.902;2023-08-08T13:39:09;24.98;42.28
67005;HTU21D;53920;51.094;5.902;2023-08-08T13:41:35;24.56;42.88
67005;HTU21D;53920;51.094;5.902;2023-08-08T13:44:01;24.28;43.80
67005;HTU21D;53920;51.094;5.902;2023-08-08T13:46:27;24.23;44.09
67005;HTU21D;53920;51.094;5.902;2023-08-08T13:48:53;24.27;43.64
67005;HTU21D;53920;51.094;5.902;2023-08-08T13:51:19;24.72;42.66
67005;HTU21D;53920;51.094;5.902;2023-08-08T13:53:46;25.48;40.17
67005;HTU21D;53920;51.094;5.902;2023-08-08T13:56:14;25.23;39.97
67005;HTU21D;53920;51.094;5.902;2023-08-08T13:58:40;25.30;39.54
67005;HTU21D;53920;51.094;5.902;2023-08-08T14:01:06;25.21;37.67
67005;HTU21D;53920;51.094;5.902;2023-08-08T14:03:32;24.98;39.88
67005;HTU21D;53920;51.094;5.902;2023-08-08T14:05:58;24.47;40.53
67005;HTU21D;53920;51.094;5.902;2023-08-08T14:08:24;24.05;41.12
67005;HTU21D;53920;51.094;5.902;2023-08-08T14:10:49;24.31;41.57
67005;HTU21D;53920;51.094;5.902;2023-08-08T14:13:15;24.46;41.19
67005;HTU21D;53920;51.094;5.902;2023-08-08T14:15:41;24.86;40.25
67005;HTU21D;53920;51.094;5.902;2023-08-08T14:18:07;25.51;39.59
67005;HTU21D;53920;51.094;5.902;2023-08-08T14:20:33;25.66;38.04
67005;HTU21D;53920;51.094;5.902;2023-08-08T14:22:59;25.50;37.91
67005;HTU21D;53920;51.094;5.902;2023-08-08T14:25:25;25.28;38.02
67005;HTU21D;53920;51.094;5.902;2023-08-08T14:27:51;25.54;37.86
67005;HTU21D;53920;51.094;5.902;2023-08-08T14:30:17;25.53;37.35
67005;HTU21D;53920;51.094;5.902;2023-08-08T14:32:43;25.50;37.71
67005;HTU21D;53920;51.094;5.902;2023-08-08T14:35:09;25.10;37.49
67005;HTU21D;53920;51.094;5.902;2023-08-08T14:37:36;24.53;38.88
67005;HTU21D;53920;51.094;5.902;2023-08-08T14:40:02;24.05;39.08
67005;HTU21D;53920;51.094;5.902;2023-08-08T14:42:28;24.16;39.91
67005;HTU21D;53920;51.094;5.902;2023-08-08T14:44:55;24.27;40.08
67005;HTU21D;53920;51.094;5.902;2023-08-08T14:47:20;24.26;39.97
67005;HTU21D;53920;51.094;5.902;2023-08-08T14:49:47;24.47;39.17
67005;HTU21D;53920;51.094;5.902;2023-08-08T14:52:13;24.33;38.24
67005;HTU21D;53920;51.094;5.902;2023-08-08T14:54:39;24.39;37.95
67005;HTU21D;53920;51.094;5.902;2023-08-08T14:57:07;24.49;38.39
67005;HTU21D;53920;51.094;5.902;2023-08-08T14:59:33;24.49;38.62
67005;HTU21D;53920;51.094;5.902;2023-08-08T15:01:59;24.25;38.55
67005;HTU21D;53920;51.094;5.902;2023-08-08T15:04:25;23.95;39.18
67005;HTU21D;53920;51.094;5.902;2023-08-08T15:06:51;23.52;39.74
67005;HTU21D;53920;51.094;5.902;2023-08-08T15:09:17;23.42;40.10
67005;HTU21D;53920;51.094;5.902;2023-08-08T15:11:43;23.50;40.03
67005;HTU21D;53920;51.094;5.902;2023-08-08T15:14:08;23.21;40.93
67005;HTU21D;53920;51.094;5.902;2023-08-08T15:16:34;23.16;41.74